sensor_id;sensor_type;location;lat;lon;timestamp;temperature;humidity
64924;HTU21D;51436;44.692;39.214;2022-12-15T00:02:32;3.82;72.35
64924;HTU21D;51436;44.692;39.214;2022-12-15T00:05:17;3.71;72.53
64924;HTU21D;51436;44.692;39.214;2022-12-15T00:08:07;3.59;72.73
64924;HTU21D;51436;44.692;39.214;2022-12-15T00:10:53;3.52;73.02
64924;HTU21D;51436;44.692;39.214;2022-12-15T00:13:38;3.46;73.22
64924;HTU21D;51436;44.692;39.214;2022-12-15T00:16:23;3.49;73.21
64924;HTU21D;51436;44.692;39.214;2022-12-15T00:19:08;3.57;73.01
64924;HTU21D;51436;44.692;39.214;2022-12-15T00:21:53;3.61;72.93
64924;HTU21D;51436;44.692;39.214;2022-12-15T00:24:38;3.63;72.79
64924;HTU21D;51436;44.692;39.214;2022-12-15T00:27:23;3.64;72.75
64924;HTU21D;51436;44.692;39.214;2022-12-15T00:30:09;3.60;72.84
64924;HTU21D;51436;44.692;39.214;2022-12-15T00:32:54;3.60;72.88
64924;HTU21D;51436;44.692;39.214;2022-12-15T00:35:40;3.56;72.92
64924;HTU21D;51436;44.692;39.214;2022-12-15T00:38:25;3.47;73.12
64924;HTU21D;51436;44.692;39.214;2022-12-15T00:41:12;3.43;73.12
64924;HTU21D;51436;44.692;39.214;2022-12-15T00:43:39;3.32;73.32
64924;HTU21D;51436;44.692;39.214;2022-12-15T00:46:06;3.23;73.61
64924;HTU21D;51436;44.692;39.214;2022-12-15T00:48:51;3.19;73.70
64924;HTU21D;51436;44.692;39.214;2022-12-15T00:51:18;3.20;73.66
64924;HTU21D;51436;44.692;39.214;2022-12-15T00:53:45;3.25;73.52
64924;HTU21D;51436;44.692;39.214;2022-12-15T00:56:31;3.28;73.41
64924;HTU21D;51436;44.692;39.214;2022-12-15T00:59:16;3.28;73.37
64924;HTU21D;51436;44.692;39.214;2022-12-15T01:02:02;3.24;73.41
64924;HTU21D;51436;44.692;39.214;2022-12-15T01:04:47;3.28;73.52
64924;HTU21D;51436;44.692;39.214;2022-12-15T01:07:32;3.34;73.44
64924;HTU21D;51436;44.692;39.214;2022-12-15T01:10:19;3.43;73.25
64924;HTU21D;51436;44.692;39.214;2022-12-15T01:13:04;3.52;73.09
64924;HTU21D;51436;44.692;39.214;2022-12-15T01:15:49;3.54;73.09
64924;HTU21D;51436;44.692;39.214;2022-12-15T01:18:34;3.61;73.03
64924;HTU21D;51436;44.692;39.214;2022-12-15T01:21:19;3.57;72.99
64924;HTU21D;51436;44.692;39.214;2022-12-15T01:23:45;3.57;73.21
64924;HTU21D;51436;44.692;39.214;2022-12-15T01:26:12;3.50;73.18
64924;HTU21D;51436;44.692;39.214;2022-12-15T01:28:38;3.43;73.42
64924;HTU21D;51436;44.692;39.214;2022-12-15T01:31:10;3.41;73.41
64924;HTU21D;51436;44.692;39.214;2022-12-15T01:44:37;3.41;73.32
64924;HTU21D;51436;44.692;39.214;2022-12-15T01:47:07;3.34;73.37
64924;HTU21D;51436;44.692;39.214;2022-12-15T01:49:37;3.35;73.46
64924;HTU21D;51436;44.692;39.214;2022-12-15T01:52:05;3.35;73.44
64924;HTU21D;51436;44.692;39.214;2022-12-15T01:54:41;3.39;73.30
64924;HTU21D;51436;44.692;39.214;2022-12-15T01:57:16;3.44;73.21
64924;HTU21D;51436;44.692;39.214;2022-12-15T01:59:47;3.45;73.22
64924;HTU21D;51436;44.692;39.214;2022-12-15T02:02:18;3.48;73.12
64924;HTU21D;51436;44.692;39.214;2022-12-15T02:04:49;3.57;73.09
64924;HTU21D;51436;44.692;39.214;2022-12-15T02:07:17;3.63;72.91
64924;HTU21D;51436;44.692;39.214;2022-12-15T02:09:46;3.62;72.93
64924;HTU21D;51436;44.692;39.214;2022-12-15T02:29:08;3.88;72.61
64924;HTU21D;51436;44.692;39.214;2022-12-15T02:31:52;3.90;72.67
64924;HTU21D;51436;44.692;39.214;2022-12-15T02:34:31;3.95;72.64
64924;HTU21D;51436;44.692;39.214;2022-12-15T02:37:04;4.01;72.64
64924;HTU21D;51436;44.692;39.214;2022-12-15T02:39:32;4.05;72.67
64924;HTU21D;51436;44.692;39.214;2022-12-15T02:41:59;4.12;72.62
64924;HTU21D;51436;44.692;39.214;2022-12-15T02:47:30;4.19;72.45
64924;HTU21D;51436;44.692;39.214;2022-12-15T02:56:16;4.20;72.50
64924;HTU21D;51436;44.692;39.214;2022-12-15T02:59:06;4.23;72.49
64924;HTU21D;51436;44.692;39.214;2022-12-15T03:01:42;4.23;72.55
64924;HTU21D;51436;44.692;39.214;2022-12-15T03:04:11;4.20;72.74
64924;HTU21D;51436;44.692;39.214;2022-12-15T03:06:38;4.23;72.64
64924;HTU21D;51436;44.692;39.214;2022-12-15T03:09:04;4.22;72.64
64924;HTU21D;51436;44.692;39.214;2022-12-15T03:11:31;4.24;72.48
64924;HTU21D;51436;44.692;39.214;2022-12-15T03:13:57;4.14;72.67
64924;HTU21D;51436;44.692;39.214;2022-12-15T03:16:23;4.12;72.71
64924;HTU21D;51436;44.692;39.214;2022-12-15T03:18:51;3.98;73.03
64924;HTU21D;51436;44.692;39.214;2022-12-15T03:21:17;3.91;73.20
64924;HTU21D;51436;44.692;39.214;2022-12-15T03:23:43;3.89;73.25
64924;HTU21D;51436;44.692;39.214;2022-12-15T03:26:10;3.92;73.26
64924;HTU21D;51436;44.692;39.214;2022-12-15T03:28:37;3.99;73.12
64924;HTU21D;51436;44.692;39.214;2022-12-15T03:31:03;4.02;72.99
64924;HTU21D;51436;44.692;39.214;2022-12-15T03:33:32;4.00;72.96
64924;HTU21D;51436;44.692;39.214;2022-12-15T03:35:59;3.99;73.04
64924;HTU21D;51436;44.692;39.214;2022-12-15T03:38:25;3.94;73.10
64924;HTU21D;51436;44.692;39.214;2022-12-15T03:40:52;3.92;73.19
64924;HTU21D;51436;44.692;39.214;2022-12-15T03:43:18;3.94;73.22
64924;HTU21D;51436;44.692;39.214;2022-12-15T03:45:44;4.03;73.14
64924;HTU21D;51436;44.692;39.214;2022-12-15T03:48:11;4.10;73.05
64924;HTU21D;51436;44.692;39.214;2022-12-15T03:50:37;4.15;72.94
64924;HTU21D;51436;44.692;39.214;2022-12-15T03:53:04;4.19;72.77
64924;HTU21D;51436;44.692;39.214;2022-12-15T03:55:30;4.22;72.80
64924;HTU21D;51436;44.692;39.214;2022-12-15T03:57:57;4.19;72.80
64924;HTU21D;51436;44.692;39.214;2022-12-15T04:00:24;4.14;73.02
64924;HTU21D;51436;44.692;39.214;2022-12-15T04:02:51;4.17;73.03
64924;HTU21D;51436;44.692;39.214;2022-12-15T04:05:31;4.16;72.92
64924;HTU21D;51436;44.692;39.214;2022-12-15T04:07:59;4.15;72.94
64924;HTU21D;51436;44.692;39.214;2022-12-15T04:10:28;4.12;72.99
64924;HTU21D;51436;44.692;39.214;2022-12-15T04:12:56;4.14;73.07
64924;HTU21D;51436;44.692;39.214;2022-12-15T04:15:23;4.13;73.02
64924;HTU21D;51436;44.692;39.214;2022-12-15T04:17:50;4.12;73.15
64924;HTU21D;51436;44.692;39.214;2022-12-15T04:20:16;4.17;73.13
64924;HTU21D;51436;44.692;39.214;2022-12-15T04:22:45;4.19;72.87
64924;HTU21D;51436;44.692;39.214;2022-12-15T04:25:14;4.08;73.12
64924;HTU21D;51436;44.692;39.214;2022-12-15T04:28:00;4.12;73.22
64924;HTU21D;51436;44.692;39.214;2022-12-15T04:30:49;4.10;73.19
64924;HTU21D;51436;44.692;39.214;2022-12-15T04:33:36;4.06;73.15
64924;HTU21D;51436;44.692;39.214;2022-12-15T04:36:23;3.94;73.48
64924;HTU21D;51436;44.692;39.214;2022-12-15T04:39:07;3.87;73.72
64924;HTU21D;51436;44.692;39.214;2022-12-15T04:41:53;3.91;73.67
64924;HTU21D;51436;44.692;39.214;2022-12-15T04:44:39;3.87;73.63
64924;HTU21D;51436;44.692;39.214;2022-12-15T04:47:24;3.83;73.67
64924;HTU21D;51436;44.692;39.214;2022-12-15T04:50:09;3.85;73.81
64924;HTU21D;51436;44.692;39.214;2022-12-15T04:52:54;3.90;73.71
64924;HTU21D;51436;44.692;39.214;2022-12-15T04:55:38;3.98;73.49
64924;HTU21D;51436;44.692;39.214;2022-12-15T04:58:23;4.04;73.38
64924;HTU21D;51436;44.692;39.214;2022-12-15T05:01:08;4.10;73.09
64924;HTU21D;51436;44.692;39.214;2022-12-15T05:03:53;4.01;73.38
64924;HTU21D;51436;44.692;39.214;2022-12-15T05:06:38;4.00;73.44
64924;HTU21D;51436;44.692;39.214;2022-12-15T05:09:23;4.02;73.34
64924;HTU21D;51436;44.692;39.214;2022-12-15T05:12:07;4.03;73.29
64924;HTU21D;51436;44.692;39.214;2022-12-15T05:14:52;4.03;73.48
64924;HTU21D;51436;44.692;39.214;2022-12-15T05:17:37;4.04;73.35
64924;HTU21D;51436;44.692;39.214;2022-12-15T05:20:22;4.02;73.46
64924;HTU21D;51436;44.692;39.214;2022-12-15T05:23:07;4.00;73.52
64924;HTU21D;51436;44.692;39.214;2022-12-15T05:25:52;3.98;73.63
64924;HTU21D;51436;44.692;39.214;2022-12-15T05:28:37;4.01;73.68
64924;HTU21D;51436;44.692;39.214;2022-12-15T05:31:22;4.03;73.67
64924;HTU21D;51436;44.692;39.214;2022-12-15T05:34:06;4.14;73.50
64924;HTU21D;51436;44.692;39.214;2022-12-15T05:36:33;4.22;73.32
64924;HTU21D;51436;44.692;39.214;2022-12-15T05:38:59;4.27;73.18
64924;HTU21D;51436;44.692;39.214;2022-12-15T05:41:25;4.30;73.16
64924;HTU21D;51436;44.692;39.214;2022-12-15T05:43:52;4.34;73.11
64924;HTU21D;51436;44.692;39.214;2022-12-15T05:46:18;4.37;73.09
64924;HTU21D;51436;44.692;39.214;2022-12-15T05:48:45;4.41;73.06
64924;HTU21D;51436;44.692;39.214;2022-12-15T05:51:11;4.44;72.99
64924;HTU21D;51436;44.692;39.214;2022-12-15T05:53:40;4.44;73.03
64924;HTU21D;51436;44.692;39.214;2022-12-15T05:56:12;4.48;72.99
64924;HTU21D;51436;44.692;39.214;2022-12-15T05:58:39;4.51;72.93
64924;HTU21D;51436;44.692;39.214;2022-12-15T06:01:09;4.63;72.74
64924;HTU21D;51436;44.692;39.214;2022-12-15T06:03:37;4.74;72.54
64924;HTU21D;51436;44.692;39.214;2022-12-15T06:06:04;4.79;72.41
64924;HTU21D;51436;44.692;39.214;2022-12-15T06:08:33;4.86;72.33
64924;HTU21D;51436;44.692;39.214;2022-12-15T06:11:01;4.90;72.23
64924;HTU21D;51436;44.692;39.214;2022-12-15T06:13:30;4.92;72.19
64924;HTU21D;51436;44.692;39.214;2022-12-15T06:16:02;4.98;72.16
64924;HTU21D;51436;44.692;39.214;2022-12-15T06:18:41;5.06;72.04
64924;HTU21D;51436;44.692;39.214;2022-12-15T06:21:14;5.12;71.96
64924;HTU21D;51436;44.692;39.214;2022-12-15T06:23:41;5.16;71.79
64924;HTU21D;51436;44.692;39.214;2022-12-15T06:26:13;5.06;71.92
64924;HTU21D;51436;44.692;39.214;2022-12-15T06:28:40;4.98;72.35
64924;HTU21D;51436;44.692;39.214;2022-12-15T06:31:08;4.91;72.32
64924;HTU21D;51436;44.692;39.214;2022-12-15T06:33:35;4.83;72.54
64924;HTU21D;51436;44.692;39.214;2022-12-15T06:36:07;4.75;72.70
64924;HTU21D;51436;44.692;39.214;2022-12-15T06:38:34;4.68;72.91
64924;HTU21D;51436;44.692;39.214;2022-12-15T06:41:03;4.64;72.99
64924;HTU21D;51436;44.692;39.214;2022-12-15T06:43:30;4.66;73.01
64924;HTU21D;51436;44.692;39.214;2022-12-15T06:45:57;4.72;72.90
64924;HTU21D;51436;44.692;39.214;2022-12-15T06:48:24;4.66;72.79
64924;HTU21D;51436;44.692;39.214;2022-12-15T06:50:51;4.58;72.96
64924;HTU21D;51436;44.692;39.214;2022-12-15T06:53:19;4.52;73.15
64924;HTU21D;51436;44.692;39.214;2022-12-15T06:55:46;4.57;72.97
64924;HTU21D;51436;44.692;39.214;2022-12-15T06:58:13;4.58;72.96
64924;HTU21D;51436;44.692;39.214;2022-12-15T07:00:42;4.60;72.87
64924;HTU21D;51436;44.692;39.214;2022-12-15T07:03:16;4.57;72.87
64924;HTU21D;51436;44.692;39.214;2022-12-15T07:05:44;4.54;73.06
64924;HTU21D;51436;44.692;39.214;2022-12-15T07:08:11;4.56;73.12
64924;HTU21D;51436;44.692;39.214;2022-12-15T07:10:42;4.62;72.86
64924;HTU21D;51436;44.692;39.214;2022-12-15T07:13:12;4.67;72.81
64924;HTU21D;51436;44.692;39.214;2022-12-15T07:15:39;4.71;72.80
64924;HTU21D;51436;44.692;39.214;2022-12-15T07:18:08;4.74;72.84
64924;HTU21D;51436;44.692;39.214;2022-12-15T07:20:35;4.78;72.83
64924;HTU21D;51436;44.692;39.214;2022-12-15T07:23:01;4.87;72.58
64924;HTU21D;51436;44.692;39.214;2022-12-15T07:25:38;4.80;72.64
64924;HTU21D;51436;44.692;39.214;2022-12-15T07:28:06;4.81;72.75
64924;HTU21D;51436;44.692;39.214;2022-12-15T07:30:34;4.76;72.93
64924;HTU21D;51436;44.692;39.214;2022-12-15T07:33:00;4.78;72.88
64924;HTU21D;51436;44.692;39.214;2022-12-15T07:35:27;4.75;72.99
64924;HTU21D;51436;44.692;39.214;2022-12-15T07:37:54;4.76;73.03
64924;HTU21D;51436;44.692;39.214;2022-12-15T07:40:21;4.81;72.91
64924;HTU21D;51436;44.692;39.214;2022-12-15T07:42:47;4.77;73.01
64924;HTU21D;51436;44.692;39.214;2022-12-15T07:53:17;4.82;72.65
64924;HTU21D;51436;44.692;39.214;2022-12-15T07:55:43;4.80;72.93
64924;HTU21D;51436;44.692;39.214;2022-12-15T07:58:10;4.76;73.06
64924;HTU21D;51436;44.692;39.214;2022-12-15T08:00:36;4.71;73.28
64924;HTU21D;51436;44.692;39.214;2022-12-15T08:03:02;4.72;73.23
64924;HTU21D;51436;44.692;39.214;2022-12-15T08:05:29;4.68;73.32
64924;HTU21D;51436;44.692;39.214;2022-12-15T08:07:56;4.67;73.41
64924;HTU21D;51436;44.692;39.214;2022-12-15T08:10:23;4.73;73.39
64924;HTU21D;51436;44.692;39.214;2022-12-15T08:12:50;4.74;73.40
64924;HTU21D;51436;44.692;39.214;2022-12-15T08:15:16;4.78;73.39
64924;HTU21D;51436;44.692;39.214;2022-12-15T08:17:42;4.81;73.34
64924;HTU21D;51436;44.692;39.214;2022-12-15T08:20:09;4.81;73.28
64924;HTU21D;51436;44.692;39.214;2022-12-15T08:22:35;4.84;73.37
64924;HTU21D;51436;44.692;39.214;2022-12-15T08:25:03;4.87;73.34
64924;HTU21D;51436;44.692;39.214;2022-12-15T08:27:29;4.82;73.41
64924;HTU21D;51436;44.692;39.214;2022-12-15T08:29:55;4.84;73.55
64924;HTU21D;51436;44.692;39.214;2022-12-15T08:32:22;4.91;73.45
64924;HTU21D;51436;44.692;39.214;2022-12-15T08:34:49;4.94;73.37
64924;HTU21D;51436;44.692;39.214;2022-12-15T08:37:15;4.91;73.44
64924;HTU21D;51436;44.692;39.214;2022-12-15T08:39:42;4.88;73.69
64924;HTU21D;51436;44.692;39.214;2022-12-15T08:42:08;4.92;73.60
64924;HTU21D;51436;44.692;39.214;2022-12-15T08:44:34;4.95;73.62
64924;HTU21D;51436;44.692;39.214;2022-12-15T08:47:01;5.03;73.48
64924;HTU21D;51436;44.692;39.214;2022-12-15T08:49:27;5.06;73.41
64924;HTU21D;51436;44.692;39.214;2022-12-15T08:51:53;5.07;73.51
64924;HTU21D;51436;44.692;39.214;2022-12-15T08:54:20;5.11;73.55
64924;HTU21D;51436;44.692;39.214;2022-12-15T08:56:47;5.19;73.47
64924;HTU21D;51436;44.692;39.214;2022-12-15T08:59:13;5.27;73.28
64924;HTU21D;51436;44.692;39.214;2022-12-15T09:01:40;5.37;73.19
64924;HTU21D;51436;44.692;39.214;2022-12-15T09:04:08;5.40;73.18
64924;HTU21D;51436;44.692;39.214;2022-12-15T09:06:34;5.39;73.03
64924;HTU21D;51436;44.692;39.214;2022-12-15T09:09:07;5.28;73.25
64924;HTU21D;51436;44.692;39.214;2022-12-15T09:11:35;5.21;73.61
64924;HTU21D;51436;44.692;39.214;2022-12-15T09:14:02;5.17;73.90
64924;HTU21D;51436;44.692;39.214;2022-12-15T09:16:29;5.17;73.89
64924;HTU21D;51436;44.692;39.214;2022-12-15T09:18:57;5.19;73.80
64924;HTU21D;51436;44.692;39.214;2022-12-15T09:21:29;5.17;73.73
64924;HTU21D;51436;44.692;39.214;2022-12-15T09:23:57;5.15;73.95
64924;HTU21D;51436;44.692;39.214;2022-12-15T09:26:26;5.16;74.02
64924;HTU21D;51436;44.692;39.214;2022-12-15T09:28:53;5.17;74.09
64924;HTU21D;51436;44.692;39.214;2022-12-15T09:31:27;5.25;74.02
64924;HTU21D;51436;44.692;39.214;2022-12-15T09:34:13;5.31;73.68
64924;HTU21D;51436;44.692;39.214;2022-12-15T09:36:41;5.36;73.88
64924;HTU21D;51436;44.692;39.214;2022-12-15T09:39:08;5.43;73.78
64924;HTU21D;51436;44.692;39.214;2022-12-15T09:41:38;5.52;73.52
64924;HTU21D;51436;44.692;39.214;2022-12-15T09:44:19;5.50;73.32
64924;HTU21D;51436;44.692;39.214;2022-12-15T09:50:03;5.63;73.06
64924;HTU21D;51436;44.692;39.214;2022-12-15T09:52:34;5.74;73.19
64924;HTU21D;51436;44.692;39.214;2022-12-15T09:55:21;5.81;72.91
64924;HTU21D;51436;44.692;39.214;2022-12-15T09:57:57;5.83;73.12
64924;HTU21D;51436;44.692;39.214;2022-12-15T10:08:18;5.85;73.33
64924;HTU21D;51436;44.692;39.214;2022-12-15T10:10:55;5.81;73.17
64924;HTU21D;51436;44.692;39.214;2022-12-15T10:14:28;5.74;73.22
64924;HTU21D;51436;44.692;39.214;2022-12-15T10:16:43;5.78;73.38
64924;HTU21D;51436;44.692;39.214;2022-12-15T10:19:54;5.82;73.09
64924;HTU21D;51436;44.692;39.214;2022-12-15T10:22:35;5.90;73.05
64924;HTU21D;51436;44.692;39.214;2022-12-15T10:25:23;5.95;72.87
64924;HTU21D;51436;44.692;39.214;2022-12-15T10:31:00;5.82;73.06
64924;HTU21D;51436;44.692;39.214;2022-12-15T10:33:33;5.84;73.27
64924;HTU21D;51436;44.692;39.214;2022-12-15T10:36:00;5.90;73.22
64924;HTU21D;51436;44.692;39.214;2022-12-15T10:38:46;5.91;73.03
64924;HTU21D;51436;44.692;39.214;2022-12-15T10:41:24;5.98;73.09
64924;HTU21D;51436;44.692;39.214;2022-12-15T10:43:52;6.06;72.93
64924;HTU21D;51436;44.692;39.214;2022-12-15T10:46:23;6.11;72.72
64924;HTU21D;51436;44.692;39.214;2022-12-15T10:51:29;6.16;72.79
64924;HTU21D;51436;44.692;39.214;2022-12-15T10:56:27;6.31;72.87
64924;HTU21D;51436;44.692;39.214;2022-12-15T10:58:56;6.43;72.73
64924;HTU21D;51436;44.692;39.214;2022-12-15T11:01:26;6.51;72.45
64924;HTU21D;51436;44.692;39.214;2022-12-15T11:03:53;6.57;72.33
64924;HTU21D;51436;44.692;39.214;2022-12-15T11:06:31;6.59;72.25
64924;HTU21D;51436;44.692;39.214;2022-12-15T11:09:25;6.66;72.23
64924;HTU21D;51436;44.692;39.214;2022-12-15T11:11:52;6.72;72.32
64924;HTU21D;51436;44.692;39.214;2022-12-15T11:14:48;6.78;72.09
64924;HTU21D;51436;44.692;39.214;2022-12-15T11:17:17;6.81;72.24
64924;HTU21D;51436;44.692;39.214;2022-12-15T11:19:47;6.82;72.30
64924;HTU21D;51436;44.692;39.214;2022-12-15T11:24:59;6.88;72.14
64924;HTU21D;51436;44.692;39.214;2022-12-15T11:27:34;6.90;72.16
64924;HTU21D;51436;44.692;39.214;2022-12-15T11:30:12;6.94;72.06
64924;HTU21D;51436;44.692;39.214;2022-12-15T11:32:48;7.00;72.00
64924;HTU21D;51436;44.692;39.214;2022-12-15T11:38:33;7.11;71.96
64924;HTU21D;51436;44.692;39.214;2022-12-15T11:46:41;7.34;71.56
64924;HTU21D;51436;44.692;39.214;2022-12-15T11:49:31;7.45;71.40
64924;HTU21D;51436;44.692;39.214;2022-12-15T11:57:50;7.63;71.16
64924;HTU21D;51436;44.692;39.214;2022-12-15T12:00:20;7.63;71.20
64924;HTU21D;51436;44.692;39.214;2022-12-15T12:11:31;7.45;71.67
64924;HTU21D;51436;44.692;39.214;2022-12-15T12:14:20;7.42;71.80
64924;HTU21D;51436;44.692;39.214;2022-12-15T12:17:12;7.37;71.89
64924;HTU21D;51436;44.692;39.214;2022-12-15T12:19:57;7.33;71.97
64924;HTU21D;51436;44.692;39.214;2022-12-15T12:22:26;7.35;72.17
64924;HTU21D;51436;44.692;39.214;2022-12-15T12:25:03;7.35;72.11
64924;HTU21D;51436;44.692;39.214;2022-12-15T12:27:39;7.35;72.13
64924;HTU21D;51436;44.692;39.214;2022-12-15T12:30:16;7.39;72.34
64924;HTU21D;51436;44.692;39.214;2022-12-15T12:38:51;7.49;72.19
64924;HTU21D;51436;44.692;39.214;2022-12-15T12:41:35;7.54;72.00
64924;HTU21D;51436;44.692;39.214;2022-12-15T12:44:31;7.57;71.90
64924;HTU21D;51436;44.692;39.214;2022-12-15T12:46:59;7.52;72.03
64924;HTU21D;51436;44.692;39.214;2022-12-15T12:49:44;7.56;72.01
64924;HTU21D;51436;44.692;39.214;2022-12-15T12:52:27;7.58;71.99
64924;HTU21D;51436;44.692;39.214;2022-12-15T12:54:56;7.55;72.17
64924;HTU21D;51436;44.692;39.214;2022-12-15T13:10:37;7.63;72.45
64924;HTU21D;51436;44.692;39.214;2022-12-15T13:18:21;7.69;72.35
64924;HTU21D;51436;44.692;39.214;2022-12-15T13:20:52;7.71;72.58
64924;HTU21D;51436;44.692;39.214;2022-12-15T13:33:57;7.74;72.67
64924;HTU21D;51436;44.692;39.214;2022-12-15T13:36:42;7.63;72.58
64924;HTU21D;51436;44.692;39.214;2022-12-15T13:44:30;7.67;72.63
64924;HTU21D;51436;44.692;39.214;2022-12-15T13:47:19;7.65;72.65
64924;HTU21D;51436;44.692;39.214;2022-12-15T13:52:47;7.63;72.83
64924;HTU21D;51436;44.692;39.214;2022-12-15T14:03:21;7.52;73.03
64924;HTU21D;51436;44.692;39.214;2022-12-15T14:05:56;7.54;73.10
64924;HTU21D;51436;44.692;39.214;2022-12-15T14:08:24;7.55;73.33
64924;HTU21D;51436;44.692;39.214;2022-12-15T14:10:56;7.54;73.22
64924;HTU21D;51436;44.692;39.214;2022-12-15T14:13:33;7.54;73.32
64924;HTU21D;51436;44.692;39.214;2022-12-15T14:16:20;7.54;73.08
64924;HTU21D;51436;44.692;39.214;2022-12-15T14:19:13;7.52;73.10
64924;HTU21D;51436;44.692;39.214;2022-12-15T14:21:47;7.50;73.50
64924;HTU21D;51436;44.692;39.214;2022-12-15T14:24:31;7.49;73.25
64924;HTU21D;51436;44.692;39.214;2022-12-15T14:26:58;7.48;73.55
64924;HTU21D;51436;44.692;39.214;2022-12-15T14:29:25;7.48;73.66
64924;HTU21D;51436;44.692;39.214;2022-12-15T14:31:55;7.49;73.52
64924;HTU21D;51436;44.692;39.214;2022-12-15T14:34:36;7.46;73.54
64924;HTU21D;51436;44.692;39.214;2022-12-15T14:37:09;7.46;73.64
64924;HTU21D;51436;44.692;39.214;2022-12-15T14:39:41;7.50;73.57
64924;HTU21D;51436;44.692;39.214;2022-12-15T14:42:20;7.47;73.46
64924;HTU21D;51436;44.692;39.214;2022-12-15T14:44:49;7.46;73.87
64924;HTU21D;51436;44.692;39.214;2022-12-15T14:47:30;7.46;73.62
64924;HTU21D;51436;44.692;39.214;2022-12-15T14:50:00;7.43;73.90
64924;HTU21D;51436;44.692;39.214;2022-12-15T14:52:34;7.39;73.87
64924;HTU21D;51436;44.692;39.214;2022-12-15T14:55:30;7.38;73.73
64924;HTU21D;51436;44.692;39.214;2022-12-15T14:57:57;7.40;73.99
64924;HTU21D;51436;44.692;39.214;2022-12-15T15:00:35;7.41;73.88
64924;HTU21D;51436;44.692;39.214;2022-12-15T15:03:15;7.43;73.73
64924;HTU21D;51436;44.692;39.214;2022-12-15T15:05:57;7.42;73.85
64924;HTU21D;51436;44.692;39.214;2022-12-15T15:11:18;7.42;73.78
64924;HTU21D;51436;44.692;39.214;2022-12-15T15:13:46;7.42;74.15
64924;HTU21D;51436;44.692;39.214;2022-12-15T15:16:17;7.44;74.03
64924;HTU21D;51436;44.692;39.214;2022-12-15T15:18:48;7.45;74.09
64924;HTU21D;51436;44.692;39.214;2022-12-15T15:21:27;7.45;73.94
64924;HTU21D;51436;44.692;39.214;2022-12-15T15:26:37;7.43;74.28
64924;HTU21D;51436;44.692;39.214;2022-12-15T15:29:37;7.41;73.99
64924;HTU21D;51436;44.692;39.214;2022-12-15T15:32:15;7.42;74.29
64924;HTU21D;51436;44.692;39.214;2022-12-15T15:34:43;7.42;74.39
64924;HTU21D;51436;44.692;39.214;2022-12-15T15:37:22;7.42;74.14
64924;HTU21D;51436;44.692;39.214;2022-12-15T15:39:50;7.44;74.42
64924;HTU21D;51436;44.692;39.214;2022-12-15T15:42:17;7.43;74.43
64924;HTU21D;51436;44.692;39.214;2022-12-15T15:44:43;7.40;74.53
64924;HTU21D;51436;44.692;39.214;2022-12-15T15:47:25;7.38;74.25
64924;HTU21D;51436;44.692;39.214;2022-12-15T15:49:53;7.38;74.51
64924;HTU21D;51436;44.692;39.214;2022-12-15T15:52:20;7.34;74.70
64924;HTU21D;51436;44.692;39.214;2022-12-15T15:54:47;7.34;74.78
64924;HTU21D;51436;44.692;39.214;2022-12-15T15:57:15;7.34;74.72
64924;HTU21D;51436;44.692;39.214;2022-12-15T15:59:42;7.38;74.75
64924;HTU21D;51436;44.692;39.214;2022-12-15T16:02:10;7.39;74.68
64924;HTU21D;51436;44.692;39.214;2022-12-15T16:04:39;7.38;74.71
64924;HTU21D;51436;44.692;39.214;2022-12-15T16:07:23;7.40;74.37
64924;HTU21D;51436;44.692;39.214;2022-12-15T16:09:51;7.39;74.61
64924;HTU21D;51436;44.692;39.214;2022-12-15T16:12:50;7.33;74.43
64924;HTU21D;51436;44.692;39.214;2022-12-15T16:15:25;7.35;74.63
64924;HTU21D;51436;44.692;39.214;2022-12-15T16:17:52;7.37;74.78
64924;HTU21D;51436;44.692;39.214;2022-12-15T16:20:22;7.39;74.73
64924;HTU21D;51436;44.692;39.214;2022-12-15T16:22:52;7.37;74.79
64924;HTU21D;51436;44.692;39.214;2022-12-15T16:25:35;7.33;74.61
64924;HTU21D;51436;44.692;39.214;2022-12-15T16:28:09;7.30;74.95
64924;HTU21D;51436;44.692;39.214;2022-12-15T16:30:36;7.32;75.09
64924;HTU21D;51436;44.692;39.214;2022-12-15T16:33:03;7.35;75.02
64924;HTU21D;51436;44.692;39.214;2022-12-15T16:35:29;7.35;74.99
64924;HTU21D;51436;44.692;39.214;2022-12-15T16:37:56;7.37;75.04
64924;HTU21D;51436;44.692;39.214;2022-12-15T16:40:25;7.38;74.92
64924;HTU21D;51436;44.692;39.214;2022-12-15T16:42:58;7.37;74.97
64924;HTU21D;51436;44.692;39.214;2022-12-15T16:45:27;7.35;75.05
64924;HTU21D;51436;44.692;39.214;2022-12-15T16:47:54;7.35;75.09
64924;HTU21D;51436;44.692;39.214;2022-12-15T16:50:33;7.33;74.86
64924;HTU21D;51436;44.692;39.214;2022-12-15T16:53:01;7.35;75.09
64924;HTU21D;51436;44.692;39.214;2022-12-15T16:55:30;7.33;75.03
64924;HTU21D;51436;44.692;39.214;2022-12-15T16:58:02;7.33;74.96
64924;HTU21D;51436;44.692;39.214;2022-12-15T17:00:32;7.35;75.04
64924;HTU21D;51436;44.692;39.214;2022-12-15T17:03:00;7.35;75.08
64924;HTU21D;51436;44.692;39.214;2022-12-15T17:05:34;7.30;75.01
64924;HTU21D;51436;44.692;39.214;2022-12-15T17:08:04;7.32;75.12
64924;HTU21D;51436;44.692;39.214;2022-12-15T17:10:31;7.32;75.12
64924;HTU21D;51436;44.692;39.214;2022-12-15T17:13:10;7.27;75.05
64924;HTU21D;51436;44.692;39.214;2022-12-15T17:15:39;7.28;75.28
64924;HTU21D;51436;44.692;39.214;2022-12-15T17:18:05;7.28;75.36
64924;HTU21D;51436;44.692;39.214;2022-12-15T17:20:32;7.27;75.27
64924;HTU21D;51436;44.692;39.214;2022-12-15T17:23:02;7.24;75.37
64924;HTU21D;51436;44.692;39.214;2022-12-15T17:25:35;7.23;75.31
64924;HTU21D;51436;44.692;39.214;2022-12-15T17:28:03;7.23;75.48
64924;HTU21D;51436;44.692;39.214;2022-12-15T17:30:31;7.26;75.44
64924;HTU21D;51436;44.692;39.214;2022-12-15T17:32:58;7.27;75.50
64924;HTU21D;51436;44.692;39.214;2022-12-15T17:35:24;7.23;75.58
64924;HTU21D;51436;44.692;39.214;2022-12-15T17:37:50;7.23;75.60
64924;HTU21D;51436;44.692;39.214;2022-12-15T17:40:21;7.19;75.67
64924;HTU21D;51436;44.692;39.214;2022-12-15T17:42:48;7.22;75.67
64924;HTU21D;51436;44.692;39.214;2022-12-15T17:45:20;7.23;75.65
64924;HTU21D;51436;44.692;39.214;2022-12-15T17:47:49;7.23;75.69
64924;HTU21D;51436;44.692;39.214;2022-12-15T17:50:17;7.26;75.67
64924;HTU21D;51436;44.692;39.214;2022-12-15T17:52:45;7.26;75.65
64924;HTU21D;51436;44.692;39.214;2022-12-15T17:55:37;7.27;75.54
64924;HTU21D;51436;44.692;39.214;2022-12-15T17:58:24;7.27;75.34
64924;HTU21D;51436;44.692;39.214;2022-12-15T18:00:54;7.30;75.60
64924;HTU21D;51436;44.692;39.214;2022-12-15T18:03:21;7.31;75.69
64924;HTU21D;51436;44.692;39.214;2022-12-15T18:05:52;7.33;75.57
64924;HTU21D;51436;44.692;39.214;2022-12-15T18:08:22;7.37;75.52
64924;HTU21D;51436;44.692;39.214;2022-12-15T18:10:56;7.33;75.63
64924;HTU21D;51436;44.692;39.214;2022-12-15T18:13:28;7.32;75.59
64924;HTU21D;51436;44.692;39.214;2022-12-15T18:15:56;7.35;75.73
64924;HTU21D;51436;44.692;39.214;2022-12-15T18:18:23;7.35;75.74
64924;HTU21D;51436;44.692;39.214;2022-12-15T18:20:55;7.40;75.57